*** BERICHT 19/02/2019: Vanaf morgen (woensdag 20/02/2019) gaat het weerstation tijdelijk volledig offline voor een grote onderhoudsbeurt! ***

*** BERICHT 20/02/2019 (21:00 u): TEMPERATUUR AFWIJKING van enkele graden mogelijk dankzij onderhoud! Regensensor en zonkracht sensor eveneens niet actief, windmeter wel volledig operationeel ***

*** BERICHT 21/02/2019: Weerstation zal vanaf 22/02 (avondperiode) opnieuw volledig operationeel zijn. ***


Weerstation Zoersel Live Webcam Weerstation Zoersel Live Webcam


sateliet wolkenradar  


Doneren

CBI


onweer radar meer informatie blitzortung!


regen radar  rain snow radar


Enkele sfeerfotootjes...  

We konden geen weer-waarchuwingen ophalen. Ga rechtstreeks naar de Meteoalarm site : www.meteoalarm.eu en controleer daar .

metar rapporten vliegvelden

   
EBAW - Antwerp
gewijzigd: 23-02-2019 14:20
helder  
helder  
   wind: oosten 13 km/h
wind: oosten 13 km/h
temperatuur: 13°C
dauwpunt: 5°C
vochtigheid: 59%
barometer: 1036 hPa
zicht: meer dan 10 km
bewolking: helder
EBAW 231320Z 10007KT 070V140 CAVOK 13/05 Q1036 NOSIG
EBLG - Li├Ęge
gewijzigd: 23-02-2019 14:20
helder  
helder  
   wind: oosten 5,6 km/h
wind: oosten 5,6 km/h
temperatuur: 13°C
dauwpunt: 1°C
vochtigheid: 44%
barometer: 1035 hPa
zicht: meer dan 10 km
bewolking: helder
EBLG 231320Z 08003KT 030V130 CAVOK 13/01 Q1035 NOSIG
EBCV - Mons/Bergen
gewijzigd: 23-02-2019 14:25
helder  
helder  
   wind: oosten 13 km/h
wind: oosten 13 km/h
temperatuur: 13°C
dauwpunt: 6°C
vochtigheid: 63%
barometer: 1035 hPa
bewolking: helder
zicht: meer dan 10 km
bewolking: helder
EBCV 231325Z AUTO 09007KT 9999 NCD 13/06 Q1035 BLU
EHBK - Maastricht
gewijzigd: 23-02-2019 14:25
gedeeltelijk bewolkt  
gedeeltelijk bewolkt  
   wind: oosten 11,1 km/h
wind: oosten 11,1 km/h
temperatuur: 12°C
dauwpunt: 4°C
vochtigheid: 58%
barometer: 1036 hPa
bewolking: gedeeltelijk bewolkt
zicht: meer dan 10 km
bewolking: gedeeltelijk bewolkt
EHBK 231325Z AUTO 09006KT 060V140 9999 NSC 12/04 Q1036 NOSIG
ELLX - Luxemburg
gewijzigd: 23-02-2019 14:20
helder  
helder  
   wind: oosten 13 km/h
wind: oosten 13 km/h
temperatuur: 11°C
dauwpunt: -2°C
vochtigheid: 41%
barometer: 1035 hPa
zicht: meer dan 10 km
bewolking: helder
ELLX 231320Z 08007KT 010V120 CAVOK 11/M02 Q1035 NOSIG
EBOS - Oostende
gewijzigd: 23-02-2019 14:20
helder  
helder  
   wind: ozo 7,4 km/h
wind: ozo 7,4 km/h
temperatuur: 14°C
dauwpunt: 6°C
vochtigheid: 59%
barometer: 1035 hPa
zicht: meer dan 10 km
bewolking: helder
EBOS 231320Z 11004KT 070V150 CAVOK 14/06 Q1035 NOSIG

script ontwikkeld door  Saratoga-weather.org aangepast voor de template door  Weerstation Leuven